createdAt,value
2023-06-21T00:01:06.977Z,99467.59
2023-06-21T00:03:35.179Z,99480.50
2023-06-21T00:06:03.275Z,99476.06
2023-06-21T00:08:30.922Z,99476.41
2023-06-21T00:10:58.870Z,99468.88
2023-06-21T00:13:26.550Z,99465.88
2023-06-21T00:15:54.228Z,99460.19
2023-06-21T00:18:22.251Z,99459.50
2023-06-21T00:20:49.860Z,99465.03
2023-06-21T00:23:17.504Z,99471.69
2023-06-21T00:25:45.459Z,99461.53
2023-06-21T00:28:13.426Z,99458.28
2023-06-21T00:30:41.175Z,99459.44
2023-06-21T00:33:09.265Z,99456.34
2023-06-21T00:35:36.992Z,99464.56
2023-06-21T00:38:04.644Z,99468.88
2023-06-21T00:40:35.671Z,99469.72
2023-06-21T00:43:03.842Z,99466.44
2023-06-21T00:45:33.062Z,99465.34
2023-06-21T00:48:00.981Z,99468.78
2023-06-21T00:50:28.928Z,99462.25
2023-06-21T00:52:57.253Z,99461.31
2023-06-21T00:55:25.412Z,99465.75
2023-06-21T00:57:53.782Z,99471.75
2023-06-21T01:00:21.872Z,99473.44
2023-06-21T01:02:54.876Z,99475.00
2023-06-21T01:05:25.672Z,99470.78
2023-06-21T01:08:07.916Z,99477.97
2023-06-21T01:11:03.243Z,99476.41
2023-06-21T01:13:49.109Z,99475.25
2023-06-21T01:16:18.626Z,99484.78
2023-06-21T01:18:47.395Z,99484.47
2023-06-21T01:21:17.504Z,99485.78
2023-06-21T01:24:06.805Z,99485.16
2023-06-21T01:26:49.630Z,99476.09
2023-06-21T01:29:44.427Z,99478.78
2023-06-21T01:32:12.489Z,99477.44
2023-06-21T01:34:40.971Z,99478.25
2023-06-21T01:37:08.717Z,99475.84
2023-06-21T01:39:36.335Z,99467.19
2023-06-21T01:42:06.602Z,99466.31
2023-06-21T01:44:34.711Z,99472.66
2023-06-21T01:47:03.159Z,99471.03
2023-06-21T01:49:31.490Z,99470.03
2023-06-21T01:51:59.700Z,99471.56
2023-06-21T01:54:28.085Z,99469.59
2023-06-21T01:56:59.572Z,99472.63
2023-06-21T01:59:31.570Z,99469.97
2023-06-21T02:02:01.924Z,99469.19
2023-06-21T02:04:30.067Z,99464.34
2023-06-21T02:06:57.885Z,99469.25
2023-06-21T02:09:26.040Z,99471.72
2023-06-21T02:11:54.066Z,99474.81
2023-06-21T02:14:22.327Z,99471.94
2023-06-21T02:16:50.047Z,99471.84
2023-06-21T02:19:18.733Z,99472.72
2023-06-21T02:21:46.561Z,99474.28
2023-06-21T02:24:15.508Z,99470.44
2023-06-21T02:26:43.538Z,99469.31
2023-06-21T02:29:12.445Z,99479.78
2023-06-21T02:31:40.410Z,99472.91
2023-06-21T02:34:08.713Z,99481.00
2023-06-21T02:36:36.802Z,99473.94
2023-06-21T02:39:07.210Z,99472.78
2023-06-21T02:41:35.188Z,99473.09
2023-06-21T02:44:03.057Z,99473.41
2023-06-21T02:46:32.386Z,99478.88
2023-06-21T02:49:00.799Z,99479.41
2023-06-21T02:51:28.481Z,99476.72
2023-06-21T02:53:56.142Z,99485.50
2023-06-21T02:56:24.122Z,99487.25
2023-06-21T02:58:51.860Z,99486.28
2023-06-21T03:01:19.628Z,99488.03
2023-06-21T03:03:47.715Z,99491.50
2023-06-21T03:06:15.524Z,99481.44
2023-06-21T03:08:43.225Z,99480.31
2023-06-21T03:11:11.149Z,99484.38
2023-06-21T03:16:07.632Z,99482.31
2023-06-21T03:18:35.774Z,99486.78
2023-06-21T03:21:03.878Z,99496.03
2023-06-21T03:23:32.063Z,99492.25
2023-06-21T03:26:00.329Z,99491.28
2023-06-21T03:28:28.140Z,99489.28
2023-06-21T03:30:56.994Z,99491.50
2023-06-21T03:33:25.145Z,99492.41
2023-06-21T03:35:53.838Z,99487.53
2023-06-21T03:38:21.557Z,99485.91
2023-06-21T03:40:49.546Z,99487.16
2023-06-21T03:43:17.315Z,99488.63
2023-06-21T03:45:45.498Z,99479.06
2023-06-21T03:48:13.485Z,99489.00
2023-06-21T03:50:41.133Z,99476.63
2023-06-21T03:53:09.205Z,99470.16
2023-06-21T03:55:37.135Z,99469.03
2023-06-21T03:58:06.564Z,99474.13
2023-06-21T04:00:34.208Z,99471.41
2023-06-21T04:03:03.485Z,99477.97
2023-06-21T04:05:31.264Z,99479.34
2023-06-21T04:07:58.814Z,99481.00
2023-06-21T04:10:27.109Z,99472.78
2023-06-21T04:12:58.558Z,99473.03
2023-06-21T04:15:26.615Z,99477.66
2023-06-21T04:17:54.333Z,99481.19
2023-06-21T04:20:22.116Z,99486.31
2023-06-21T04:22:50.042Z,99492.78
2023-06-21T04:25:17.749Z,99494.16
2023-06-21T04:27:45.427Z,99493.31
2023-06-21T04:30:13.684Z,99496.13
2023-06-21T04:32:41.526Z,99489.47
2023-06-21T04:35:09.324Z,99487.84
2023-06-21T04:37:37.249Z,99482.97
2023-06-21T04:40:16.445Z,99492.84
2023-06-21T04:42:49.094Z,99499.56
2023-06-21T04:45:17.513Z,99503.66
2023-06-21T04:47:46.016Z,99504.16
2023-06-21T04:52:45.209Z,99525.03
2023-06-21T04:55:12.866Z,99537.84
2023-06-21T04:57:40.418Z,99546.81
2023-06-21T05:00:08.933Z,99555.00
2023-06-21T05:02:36.655Z,99555.94
2023-06-21T05:05:04.529Z,99555.41
2023-06-21T05:07:32.509Z,99571.28
2023-06-21T05:10:00.087Z,99567.78
2023-06-21T05:12:27.786Z,99568.59
2023-06-21T05:14:55.769Z,99576.56
2023-06-21T05:17:23.472Z,99571.09
2023-06-21T05:19:51.169Z,99572.38
2023-06-21T05:22:19.165Z,99569.94
2023-06-21T05:24:46.969Z,99566.75
2023-06-21T05:27:14.787Z,99566.41
2023-06-21T05:29:42.707Z,99560.31
2023-06-21T05:32:10.217Z,99562.09
2023-06-21T05:34:37.920Z,99552.13
2023-06-21T05:37:05.958Z,99549.03
2023-06-21T05:39:33.736Z,99557.28
2023-06-21T05:42:01.490Z,99550.31
2023-06-21T05:44:29.431Z,99556.38
2023-06-21T05:46:57.056Z,99550.56
2023-06-21T05:49:24.658Z,99542.38
2023-06-21T05:51:52.685Z,99551.06
2023-06-21T05:54:20.411Z,99549.78
2023-06-21T05:56:48.074Z,99562.84
2023-06-21T05:59:17.676Z,99572.66
2023-06-21T06:01:47.856Z,99576.59
2023-06-21T06:04:16.761Z,99575.09
2023-06-21T06:06:44.505Z,99572.31
2023-06-21T06:09:12.427Z,99564.84
2023-06-21T06:11:40.534Z,99571.22
2023-06-21T06:14:10.422Z,99575.53
2023-06-21T06:16:39.525Z,99577.16
2023-06-21T06:19:07.506Z,99571.78
2023-06-21T06:21:35.135Z,99563.56
2023-06-21T06:24:02.996Z,99552.66
2023-06-21T06:26:30.962Z,99560.88
2023-06-21T06:28:58.614Z,99565.25
2023-06-21T06:31:27.830Z,99564.91
2023-06-21T06:33:55.779Z,99564.53
2023-06-21T06:36:23.626Z,99566.53
2023-06-21T06:38:52.373Z,99572.41
2023-06-21T06:41:20.622Z,99575.16
2023-06-21T06:43:48.349Z,99575.53
2023-06-21T06:46:16.141Z,99572.00
2023-06-21T06:48:44.179Z,99569.69
2023-06-21T06:51:11.899Z,99570.06
2023-06-21T06:53:39.614Z,99560.25
2023-06-21T06:56:07.597Z,99572.81
2023-06-21T06:58:35.342Z,99574.00
2023-06-21T07:01:03.867Z,99572.44
2023-06-21T07:03:32.701Z,99573.63
2023-06-21T07:06:00.709Z,99572.41
2023-06-21T07:08:28.815Z,99569.69
2023-06-21T07:10:56.861Z,99563.38
2023-06-21T07:13:24.503Z,99568.81
2023-06-21T07:15:52.285Z,99571.56
2023-06-21T07:18:20.233Z,99568.41
2023-06-21T07:20:48.023Z,99571.12
2023-06-21T07:23:15.699Z,99573.44
2023-06-21T07:25:43.799Z,99564.06
2023-06-21T07:28:11.544Z,99564.75
2023-06-21T07:30:40.639Z,99560.06
2023-06-21T07:33:08.623Z,99563.44
2023-06-21T07:35:36.581Z,99561.03
2023-06-21T07:38:04.328Z,99564.09
2023-06-21T07:40:32.276Z,99556.88
2023-06-21T07:43:02.401Z,99553.16
2023-06-21T07:45:30.117Z,99563.75
2023-06-21T07:47:58.359Z,99565.16
2023-06-21T07:50:25.992Z,99568.38
2023-06-21T07:52:53.756Z,99559.16
2023-06-21T07:55:22.073Z,99570.28
2023-06-21T07:57:49.900Z,99560.06
2023-06-21T08:00:17.908Z,99560.41
2023-06-21T08:02:46.228Z,99565.09
2023-06-21T08:05:13.982Z,99565.13
2023-06-21T08:07:41.804Z,99559.53
2023-06-21T08:10:10.684Z,99568.56
2023-06-21T08:12:38.657Z,99576.25
2023-06-21T08:15:07.158Z,99576.75
2023-06-21T08:17:35.206Z,99574.97
2023-06-21T08:22:38.995Z,99576.75
2023-06-21T08:25:07.195Z,99578.94
2023-06-21T08:27:34.899Z,99572.06
2023-06-21T08:30:02.674Z,99579.22
2023-06-21T08:32:30.810Z,99575.22
2023-06-21T08:34:58.386Z,99567.00
2023-06-21T08:37:25.963Z,99567.00
2023-06-21T08:39:54.500Z,99568.22
2023-06-21T08:42:23.757Z,99560.19
2023-06-21T08:44:52.442Z,99546.50
2023-06-21T08:47:22.435Z,99554.97
2023-06-21T08:49:52.029Z,99562.84
2023-06-21T08:52:22.060Z,99566.81
2023-06-21T08:54:59.136Z,99581.34
2023-06-21T08:57:28.968Z,99589.16
2023-06-21T09:00:06.829Z,99581.03
2023-06-21T09:02:54.019Z,99584.66
2023-06-21T09:05:34.687Z,99591.97
2023-06-21T09:08:07.424Z,99590.16
2023-06-21T09:10:37.992Z,99596.87
2023-06-21T09:13:07.487Z,99593.84
2023-06-21T09:15:35.717Z,99603.09
2023-06-21T09:18:03.696Z,99597.63
2023-06-21T09:20:32.130Z,99594.31
2023-06-21T09:23:00.778Z,99587.28
2023-06-21T09:25:28.484Z,99590.44
2023-06-21T09:27:56.441Z,99592.25
2023-06-21T09:30:37.173Z,99596.97
2023-06-21T09:33:06.117Z,99597.16
2023-06-21T09:35:33.905Z,99598.81
2023-06-21T09:38:01.688Z,99596.13
2023-06-21T09:40:41.401Z,99595.31
2023-06-21T09:43:08.998Z,99587.44
2023-06-21T09:45:37.063Z,99585.66
2023-06-21T09:48:04.765Z,99588.59
2023-06-21T09:50:45.174Z,99590.50
2023-06-21T09:53:13.047Z,99588.63
2023-06-21T09:55:44.713Z,99584.50
2023-06-21T09:58:12.397Z,99587.88
2023-06-21T10:00:40.279Z,99579.53
2023-06-21T10:03:08.336Z,99588.16
2023-06-21T10:05:36.103Z,99588.41
2023-06-21T10:08:05.423Z,99588.72
2023-06-21T10:10:33.999Z,99585.75
2023-06-21T10:13:01.708Z,99598.72
2023-06-21T10:15:30.614Z,99592.38
2023-06-21T10:18:05.422Z,99588.00
2023-06-21T10:20:35.161Z,99598.44
2023-06-21T10:23:03.506Z,99590.91
2023-06-21T10:25:31.739Z,99592.31
2023-06-21T10:28:00.171Z,99586.00
2023-06-21T10:30:30.572Z,99591.31
2023-06-21T10:32:59.106Z,99589.28
2023-06-21T10:35:29.174Z,99592.53
2023-06-21T10:38:02.704Z,99591.06
2023-06-21T10:40:31.434Z,99589.91
2023-06-21T10:42:59.832Z,99583.31
2023-06-21T10:45:27.871Z,99586.41
2023-06-21T10:47:55.792Z,99587.84
2023-06-21T10:50:25.038Z,99581.75
2023-06-21T10:52:54.717Z,99582.75
2023-06-21T10:55:22.430Z,99590.53
2023-06-21T10:57:55.235Z,99591.63
2023-06-21T11:00:24.114Z,99590.34
2023-06-21T11:02:52.925Z,99594.41
2023-06-21T11:05:21.581Z,99602.63
2023-06-21T11:07:57.217Z,99603.47
2023-06-21T11:10:47.217Z,99599.44
2023-06-21T11:13:15.555Z,99595.31
2023-06-21T11:15:47.856Z,99595.50
2023-06-21T11:18:19.245Z,99601.75
2023-06-21T11:20:57.670Z,99591.44
2023-06-21T11:23:26.523Z,99588.41
2023-06-21T11:26:14.408Z,99593.34
2023-06-21T11:28:49.790Z,99596.87
2023-06-21T11:31:24.443Z,99592.25
2023-06-21T11:33:53.600Z,99590.34
2023-06-21T11:36:28.818Z,99592.69
2023-06-21T11:39:06.695Z,99593.59
2023-06-21T11:41:46.777Z,99581.91
2023-06-21T11:44:14.801Z,99601.69
2023-06-21T11:46:42.800Z,99594.66
2023-06-21T11:49:10.476Z,99598.22
2023-06-21T11:51:50.171Z,99588.66
2023-06-21T11:54:31.646Z,99595.97
2023-06-21T11:56:59.366Z,99582.84
2023-06-21T11:59:27.618Z,99587.78
2023-06-21T12:01:55.247Z,99594.12
2023-06-21T12:04:29.471Z,99588.56
2023-06-21T12:06:57.162Z,99581.53
2023-06-21T12:09:25.239Z,99583.16
2023-06-21T12:11:52.848Z,99581.78
2023-06-21T12:14:20.627Z,99580.41
2023-06-21T12:16:50.809Z,99577.13
2023-06-21T12:19:18.637Z,99569.28
2023-06-21T12:21:46.327Z,99563.75
2023-06-21T12:24:14.741Z,99581.03
2023-06-21T12:26:48.949Z,99579.47
2023-06-21T12:29:17.091Z,99580.38
2023-06-21T12:31:44.843Z,99581.78
2023-06-21T12:34:18.848Z,99576.16
2023-06-21T12:36:47.271Z,99579.53
2023-06-21T12:39:15.469Z,99574.16
2023-06-21T12:41:43.924Z,99571.06
2023-06-21T12:44:23.014Z,99575.63
2023-06-21T12:46:52.023Z,99575.50
2023-06-21T12:49:20.021Z,99577.41
2023-06-21T12:51:48.360Z,99576.72
2023-06-21T12:54:17.931Z,99569.91
2023-06-21T12:56:50.972Z,99566.47
2023-06-21T12:59:18.843Z,99560.22
2023-06-21T13:01:46.897Z,99560.66
2023-06-21T13:04:16.000Z,99564.59
2023-06-21T13:06:43.998Z,99557.94
2023-06-21T13:09:12.736Z,99555.97
2023-06-21T13:11:40.457Z,99546.97
2023-06-21T13:14:08.341Z,99547.72
2023-06-21T13:16:36.443Z,99549.94
2023-06-21T13:19:04.290Z,99543.22
2023-06-21T13:21:32.167Z,99537.38
2023-06-21T13:24:00.414Z,99538.31
2023-06-21T13:26:28.609Z,99530.63
2023-06-21T13:28:56.308Z,99530.03
2023-06-21T13:31:25.189Z,99519.88
2023-06-21T13:33:53.556Z,99520.59
2023-06-21T13:36:21.356Z,99518.09
2023-06-21T13:38:49.365Z,99509.00
2023-06-21T13:41:16.952Z,99512.63
2023-06-21T13:43:44.544Z,99498.87
2023-06-21T13:46:12.677Z,99513.91
2023-06-21T13:48:40.537Z,99508.69
2023-06-21T13:51:08.178Z,99508.44
2023-06-21T13:53:36.071Z,99505.75
2023-06-21T13:56:04.008Z,99503.97
2023-06-21T13:58:31.569Z,99517.28
2023-06-21T14:00:59.532Z,99504.78
2023-06-21T14:03:27.785Z,99500.25
2023-06-21T14:05:55.511Z,99499.16
2023-06-21T14:08:23.308Z,99493.03
2023-06-21T14:10:51.277Z,99501.62
2023-06-21T14:13:20.700Z,99498.31
2023-06-21T14:15:50.140Z,99506.16
2023-06-21T14:18:18.656Z,99515.47
2023-06-21T14:20:46.571Z,99513.97
2023-06-21T14:23:14.277Z,99510.28
2023-06-21T14:25:42.347Z,99518.69
2023-06-21T14:28:10.076Z,99523.69
2023-06-21T14:30:37.805Z,99512.81
2023-06-21T14:33:07.756Z,99512.06
2023-06-21T14:35:36.465Z,99531.13
2023-06-21T14:38:04.406Z,99528.94
2023-06-21T14:40:32.335Z,99536.56
2023-06-21T14:42:59.965Z,99540.44
2023-06-21T14:45:27.826Z,99530.59
2023-06-21T14:47:56.042Z,99540.75
2023-06-21T14:50:24.565Z,99543.03
2023-06-21T14:52:52.146Z,99536.19
2023-06-21T14:55:20.210Z,99537.72
2023-06-21T14:57:47.895Z,99546.00
2023-06-21T15:00:15.903Z,99543.53
2023-06-21T15:02:43.954Z,99547.88
2023-06-21T15:05:11.762Z,99551.19
2023-06-21T15:07:46.540Z,99540.44
2023-06-21T15:10:14.487Z,99532.84
2023-06-21T15:12:56.188Z,99551.56
2023-06-21T15:15:28.693Z,99541.34
2023-06-21T15:17:56.676Z,99542.75
2023-06-21T15:20:24.388Z,99533.56
2023-06-21T15:22:52.396Z,99533.91
2023-06-21T15:25:20.150Z,99546.47
2023-06-21T15:27:47.985Z,99536.69
2023-06-21T15:30:16.051Z,99530.16
2023-06-21T15:32:44.473Z,99532.47
2023-06-21T15:35:12.163Z,99522.66
2023-06-21T15:37:40.062Z,99518.00
2023-06-21T15:40:08.633Z,99518.97
2023-06-21T15:42:37.226Z,99517.75
2023-06-21T15:45:06.121Z,99516.19
2023-06-21T15:47:33.946Z,99511.56
2023-06-21T15:50:01.892Z,99506.47
2023-06-21T15:52:29.855Z,99513.59
2023-06-21T15:54:57.462Z,99527.87
2023-06-21T15:57:25.112Z,99521.84
2023-06-21T15:59:53.027Z,99517.16
2023-06-21T16:02:20.750Z,99522.88
2023-06-21T16:10:31.533Z,99535.22
2023-06-21T16:12:59.924Z,99529.72
2023-06-21T16:15:28.247Z,99527.78
2023-06-21T16:17:56.189Z,99524.22
2023-06-21T16:20:24.607Z,99512.84
2023-06-21T16:22:52.358Z,99520.28
2023-06-21T16:25:20.294Z,99521.91
2023-06-21T16:27:48.399Z,99514.53
2023-06-21T16:30:15.964Z,99513.31
2023-06-21T16:32:43.608Z,99527.00
2023-06-21T16:35:11.645Z,99535.41
2023-06-21T16:37:39.257Z,99527.06
2023-06-21T16:40:09.964Z,99537.88
2023-06-21T16:42:38.385Z,99532.06
2023-06-21T16:45:06.296Z,99545.31
2023-06-21T16:47:33.999Z,99547.59
2023-06-21T16:50:02.080Z,99550.00
2023-06-21T16:52:34.798Z,99545.66
2023-06-21T16:55:04.465Z,99544.28
2023-06-21T16:57:37.889Z,99545.13
2023-06-21T17:00:09.527Z,99539.62
2023-06-21T17:02:37.374Z,99529.09
2023-06-21T17:05:05.442Z,99522.56
2023-06-21T17:07:33.412Z,99533.66
2023-06-21T17:10:01.169Z,99532.19
2023-06-21T17:12:28.897Z,99535.13
2023-06-21T17:14:56.870Z,99538.66
2023-06-21T17:17:24.547Z,99528.03
2023-06-21T17:19:52.189Z,99526.53
2023-06-21T17:22:20.122Z,99527.91
2023-06-21T17:24:47.836Z,99531.81
2023-06-21T17:27:18.165Z,99530.94
2023-06-21T17:29:46.999Z,99535.87
2023-06-21T17:32:15.012Z,99543.53
2023-06-21T17:34:43.180Z,99536.16
2023-06-21T17:37:11.258Z,99539.25
2023-06-21T17:39:38.969Z,99536.22
2023-06-21T17:42:07.246Z,99541.16
2023-06-21T17:44:35.348Z,99545.38
2023-06-21T17:47:03.206Z,99553.13
2023-06-21T17:49:30.849Z,99559.09
2023-06-21T17:51:58.688Z,99550.59
2023-06-21T17:54:26.292Z,99550.78
2023-06-21T17:56:53.966Z,99560.31
2023-06-21T17:59:21.967Z,99562.34
2023-06-21T18:01:49.655Z,99570.22
2023-06-21T18:04:17.830Z,99575.00
2023-06-21T18:06:45.524Z,99574.63
2023-06-21T18:09:13.138Z,99575.94
2023-06-21T18:11:43.457Z,99578.00
2023-06-21T18:14:11.007Z,99579.53
2023-06-21T18:16:39.377Z,99569.56
2023-06-21T18:19:07.310Z,99566.84
2023-06-21T18:21:34.948Z,99560.91
2023-06-21T18:24:10.061Z,99557.50
2023-06-21T18:26:38.254Z,99553.34
2023-06-21T18:29:05.922Z,99550.00
2023-06-21T18:31:33.660Z,99551.41
2023-06-21T18:34:01.804Z,99561.50
2023-06-21T18:36:29.507Z,99562.19
2023-06-21T18:38:57.292Z,99556.97
2023-06-21T18:41:26.205Z,99563.41
2023-06-21T18:43:53.889Z,99571.06
2023-06-21T18:46:21.553Z,99580.13
2023-06-21T18:48:49.692Z,99579.50
2023-06-21T18:51:17.436Z,99591.81
2023-06-21T18:53:45.166Z,99603.28
2023-06-21T18:56:13.281Z,99602.22
2023-06-21T18:58:41.000Z,99593.72
2023-06-21T19:01:08.766Z,99603.81
2023-06-21T19:03:36.914Z,99601.34
2023-06-21T19:06:04.756Z,99594.97
2023-06-21T19:08:32.425Z,99605.69
2023-06-21T19:11:00.268Z,99602.63
2023-06-21T19:13:28.053Z,99601.28
2023-06-21T19:15:56.273Z,99597.87
2023-06-21T19:18:24.286Z,99600.75
2023-06-21T19:20:51.989Z,99606.63
2023-06-21T19:23:19.653Z,99607.47
2023-06-21T19:25:47.612Z,99598.50
2023-06-21T19:28:15.287Z,99606.09
2023-06-21T19:30:54.477Z,99607.44
2023-06-21T19:33:22.653Z,99617.22
2023-06-21T19:35:50.386Z,99626.97
2023-06-21T19:38:18.104Z,99648.88
2023-06-21T19:40:46.039Z,99636.72
2023-06-21T19:43:14.425Z,99638.03
2023-06-21T19:45:42.071Z,99647.47
2023-06-21T19:48:10.194Z,99649.16
2023-06-21T19:50:38.087Z,99661.31
2023-06-21T19:53:05.678Z,99668.28
2023-06-21T19:55:33.606Z,99678.91
2023-06-21T19:58:01.536Z,99681.59
2023-06-21T20:00:29.545Z,99677.06
2023-06-21T20:02:57.880Z,99670.44
2023-06-21T20:05:25.747Z,99684.22
2023-06-21T20:07:53.370Z,99683.47
2023-06-21T20:10:21.371Z,99692.62
2023-06-21T20:12:49.065Z,99678.50
2023-06-21T20:15:16.777Z,99686.34
2023-06-21T20:17:44.682Z,99691.69
2023-06-21T20:20:12.434Z,99703.81
2023-06-21T20:22:40.191Z,99731.88
2023-06-21T20:25:08.558Z,99733.97
2023-06-21T20:27:36.230Z,99723.06
2023-06-21T20:30:04.441Z,99719.59
2023-06-21T20:32:32.447Z,99701.19
2023-06-21T20:35:00.084Z,99700.78
2023-06-21T20:37:27.757Z,99704.75
2023-06-21T20:39:55.753Z,99712.63
2023-06-21T20:42:23.302Z,99718.50
2023-06-21T20:44:50.890Z,99727.03
2023-06-21T20:47:18.994Z,99729.34
2023-06-21T20:49:46.640Z,99731.16
2023-06-21T20:52:14.375Z,99720.78
2023-06-21T20:54:42.949Z,99728.59
2023-06-21T20:57:10.693Z,99752.50
2023-06-21T20:59:38.415Z,99760.62
2023-06-21T21:02:06.666Z,99785.00
2023-06-21T21:04:34.557Z,99784.91
2023-06-21T21:07:02.431Z,99789.16
2023-06-21T21:09:33.109Z,99783.62
2023-06-21T21:12:00.665Z,99776.88
2023-06-21T21:14:28.279Z,99767.72
2023-06-21T21:16:59.547Z,99762.03
2023-06-21T21:19:27.314Z,99754.63
2023-06-21T21:21:55.026Z,99762.28
2023-06-21T21:24:23.048Z,99753.31
2023-06-21T21:26:50.764Z,99748.19
2023-06-21T21:29:18.447Z,99741.59
2023-06-21T21:31:46.850Z,99731.00
2023-06-21T21:34:14.713Z,99727.09
2023-06-21T21:36:42.345Z,99718.41
2023-06-21T21:39:10.326Z,99715.28
2023-06-21T21:41:39.943Z,99709.06
2023-06-21T21:44:08.855Z,99705.56
2023-06-21T21:46:37.908Z,99718.22
2023-06-21T21:49:05.346Z,99720.19
2023-06-21T21:51:33.010Z,99707.50
2023-06-21T21:54:00.863Z,99714.69
2023-06-21T21:56:28.462Z,99707.53
2023-06-21T21:58:56.128Z,99708.59
2023-06-21T22:01:24.069Z,99706.72
2023-06-21T22:03:52.252Z,99703.97
2023-06-21T22:06:20.019Z,99697.56
2023-06-21T22:08:47.637Z,99702.03
2023-06-21T22:11:15.495Z,99702.25
2023-06-21T22:13:43.078Z,99693.25
2023-06-21T22:16:10.735Z,99683.69
2023-06-21T22:18:38.619Z,99683.16
2023-06-21T22:21:06.764Z,99677.25
2023-06-21T22:23:34.582Z,99678.47
2023-06-21T22:26:06.759Z,99677.69
2023-06-21T22:28:34.441Z,99670.19
2023-06-21T22:31:02.783Z,99667.91
2023-06-21T22:33:31.106Z,99677.56
2023-06-21T22:35:58.715Z,99698.13
2023-06-21T22:38:26.860Z,99711.41
2023-06-21T22:40:54.410Z,99718.97
2023-06-21T22:43:22.007Z,99722.31
2023-06-21T22:45:49.949Z,99712.00
2023-06-21T22:48:17.600Z,99709.63
2023-06-21T22:50:45.236Z,99708.44
2023-06-21T22:53:13.226Z,99701.59
2023-06-21T22:55:43.993Z,99702.69
2023-06-21T22:58:11.777Z,99688.63
2023-06-21T23:00:39.831Z,99688.94
2023-06-21T23:03:09.085Z,99685.47
2023-06-21T23:05:36.782Z,99681.66
2023-06-21T23:08:05.326Z,99706.00
2023-06-21T23:10:32.943Z,99721.09
2023-06-21T23:13:00.569Z,99737.56
2023-06-21T23:15:28.540Z,99727.37
2023-06-21T23:17:56.315Z,99722.59
2023-06-21T23:20:23.955Z,99727.13
2023-06-21T23:22:51.870Z,99723.06
2023-06-21T23:25:19.471Z,99736.09
2023-06-21T23:27:47.165Z,99741.84
2023-06-21T23:32:48.262Z,99763.59
2023-06-21T23:35:16.188Z,99758.53
2023-06-21T23:37:43.828Z,99754.28
2023-06-21T23:40:11.668Z,99751.63
2023-06-21T23:42:39.629Z,99754.38
2023-06-21T23:45:08.684Z,99753.25
2023-06-21T23:47:37.618Z,99750.50
2023-06-21T23:50:06.832Z,99763.41
2023-06-21T23:52:34.564Z,99758.72
2023-06-21T23:55:02.427Z,99758.16
2023-06-21T23:57:30.537Z,99765.72
2023-06-21T23:59:58.139Z,99768.09
